Time;durP1;ratioP1;P1;durP2;ratioP2;P2;SDS_P1;SDS_P2;PMS_P1;PMS_P2;Temp;Humidity;BMP_temperature;BMP_pressure;BME280_temperature;BME280_humidity;BME280_pressure;Samples;Min_cycle;Max_cycle;Signal;HPM_P1;HPM_P2
2023/10/25 00:01:17;;;;;;;1.77;0.60;;;;;;;4.83;66.94;101654.59;6133785;23;20021;-75
2023/10/25 00:03:44;;;;;;;1.30;0.70;;;;;;;4.83;66.86;101652.88;6147506;23;20017;-76
2023/10/25 00:06:11;;;;;;;1.08;0.45;;;;;;;4.84;67.06;101657.22;6147152;23;20021;-75
2023/10/25 00:08:39;;;;;;;1.15;0.75;;;;;;;4.84;67.06;101665.00;6146632;23;20126;-76
2023/10/25 00:11:07;;;;;;;1.40;0.75;;;;;;;4.84;67.09;101657.22;6147335;23;20105;-75
2023/10/25 00:13:35;;;;;;;2.22;0.80;;;;;;;4.86;67.08;101654.66;6146680;23;20472;-76
2023/10/25 00:16:03;;;;;;;0.70;0.50;;;;;;;4.86;67.01;101658.09;6146483;23;20049;-76
2023/10/25 00:18:30;;;;;;;3.45;0.50;;;;;;;4.87;67.36;101656.41;6148085;23;20018;-76
2023/10/25 00:20:57;;;;;;;1.00;0.73;;;;;;;4.88;67.24;101652.97;6147701;23;20018;-75
2023/10/25 00:23:24;;;;;;;1.08;0.60;;;;;;;4.89;67.40;101667.66;6144279;23;20023;-77
2023/10/25 00:25:52;;;;;;;4.47;0.75;;;;;;;4.88;67.31;101668.50;6147030;23;20025;-74
2023/10/25 00:28:19;;;;;;;2.13;0.93;;;;;;;4.86;67.24;101667.59;6146375;23;20021;-76
2023/10/25 00:30:47;;;;;;;1.48;0.57;;;;;;;4.86;67.49;101663.28;6149268;23;20101;-78
2023/10/25 00:33:14;;;;;;;1.60;0.82;;;;;;;4.84;67.28;101658.91;6147942;23;20024;-77
2023/10/25 00:35:41;;;;;;;2.00;0.70;;;;;;;4.85;67.36;101648.59;6154760;23;20022;-77
2023/10/25 00:38:08;;;;;;;1.27;0.60;;;;;;;4.86;67.61;101660.69;6148677;23;20018;-77
2023/10/25 00:40:35;;;;;;;1.83;0.80;;;;;;;4.87;67.46;101661.59;6148825;23;20026;-77
2023/10/25 00:43:18;;;;;;;1.48;0.65;;;;;;;4.85;67.47;101652.91;6152502;23;20025;-77
2023/10/25 00:46:00;;;;;;;0.85;0.70;;;;;;;4.83;67.58;101652.00;6152707;23;20421;-77
2023/10/25 00:48:28;;;;;;;2.30;0.68;;;;;;;4.86;67.42;101657.25;6153582;23;20026;-77
2023/10/25 00:50:55;;;;;;;1.55;0.70;;;;;;;4.86;67.50;101657.25;6153266;23;20361;-77
2023/10/25 00:53:23;;;;;;;2.65;0.90;;;;;;;4.87;67.55;101661.59;6153278;23;20022;-77
2023/10/25 00:55:51;;;;;;;0.90;0.65;;;;;;;4.88;67.71;101663.34;6150594;23;20023;-77
2023/10/25 00:58:20;;;;;;;4.05;1.30;;;;;;;4.87;67.37;101659.88;6152245;23;20032;-77
2023/10/25 01:00:48;;;;;;;2.47;1.00;;;;;;;4.88;67.58;101663.34;6154435;23;20017;-77
2023/10/25 01:03:17;;;;;;;2.90;0.95;;;;;;;4.88;67.39;101653.84;6153977;23;20018;-77
2023/10/25 01:05:44;;;;;;;2.00;0.80;;;;;;;4.89;67.57;101654.72;6152081;23;20026;-78
2023/10/25 01:08:11;;;;;;;1.00;0.70;;;;;;;4.90;67.70;101664.25;6152326;23;20021;-77
2023/10/25 01:10:38;;;;;;;1.50;0.68;;;;;;;4.91;67.86;101655.63;6154509;23;20018;-77
2023/10/25 01:13:05;;;;;;;3.72;0.77;;;;;;;4.92;67.71;101654.75;6151742;23;20840;-77
2023/10/25 01:15:34;;;;;;;1.75;0.70;;;;;;;4.91;67.83;101647.84;6154296;23;20073;-77
2023/10/25 01:18:00;;;;;;;4.60;1.08;;;;;;;4.91;67.41;101642.66;6152731;23;20026;-77
2023/10/25 01:20:27;;;;;;;1.52;0.85;;;;;;;4.90;67.83;101640.94;6152047;23;20028;-79
2023/10/25 01:22:56;;;;;;;3.97;0.80;;;;;;;4.88;67.98;101640.91;6153849;23;20017;-77
2023/10/25 01:25:22;;;;;;;2.92;0.70;;;;;;;4.86;68.07;101633.94;6150835;23;20030;-77
2023/10/25 01:27:50;;;;;;;2.22;0.82;;;;;;;4.84;68.30;101635.63;6153596;23;20017;-77
2023/10/25 01:30:17;;;;;;;2.55;1.05;;;;;;;4.83;68.15;101628.72;6152231;23;20027;-77
2023/10/25 01:32:44;;;;;;;1.90;0.77;;;;;;;4.82;68.18;101627.84;6153255;23;20027;-77
2023/10/25 01:35:11;;;;;;;1.88;0.90;;;;;;;4.81;68.24;101626.13;6151681;23;20027;-77
2023/10/25 01:37:38;;;;;;;1.20;0.75;;;;;;;4.81;68.17;101628.69;6151164;23;20021;-77
2023/10/25 01:40:08;;;;;;;1.83;1.27;;;;;;;4.80;68.50;101623.47;6153768;23;20026;-77
2023/10/25 01:42:35;;;;;;;1.88;1.08;;;;;;;4.80;68.33;101618.31;6152500;23;20022;-77
2023/10/25 01:45:02;;;;;;;2.30;0.95;;;;;;;4.80;68.62;101624.34;6152976;23;20024;-77
2023/10/25 01:47:29;;;;;;;2.58;1.05;;;;;;;4.79;68.51;101625.19;6151401;23;20329;-78
2023/10/25 01:49:55;;;;;;;1.90;1.05;;;;;;;4.80;68.49;101626.06;6153208;23;20027;-77
2023/10/25 01:52:22;;;;;;;4.13;0.95;;;;;;;4.76;68.80;101617.38;6148281;23;20025;-74
2023/10/25 01:54:50;;;;;;;2.58;0.70;;;;;;;4.79;68.63;101624.34;6146511;23;20357;-74
2023/10/25 01:57:19;;;;;;;1.33;1.00;;;;;;;4.79;68.66;101616.56;6149256;23;20030;-74
2023/10/25 01:59:46;;;;;;;2.13;0.80;;;;;;;4.80;68.68;101614.00;6150115;23;20022;-74
2023/10/25 02:02:13;;;;;;;1.67;0.88;;;;;;;4.81;68.81;101614.84;6147660;23;20057;-75
2023/10/25 02:04:40;;;;;;;2.28;1.25;;;;;;;4.78;68.65;101605.34;6146806;23;20032;-74
2023/10/25 02:07:07;;;;;;;2.75;0.85;;;;;;;4.80;68.62;101608.81;6149348;23;20022;-74
2023/10/25 02:09:34;;;;;;;3.15;0.80;;;;;;;4.80;68.90;101615.72;6145917;23;20018;-74
2023/10/25 02:12:01;;;;;;;2.85;1.08;;;;;;;4.81;68.80;101614.84;6143474;23;20026;-74
2023/10/25 02:14:29;;;;;;;1.65;0.80;;;;;;;4.81;68.75;101607.09;6145807;23;20022;-74
2023/10/25 02:16:56;;;;;;;2.08;1.13;;;;;;;4.82;68.78;101606.28;6134739;23;20096;-74
2023/10/25 02:19:23;;;;;;;3.60;0.82;;;;;;;4.82;68.79;101611.44;6144707;23;20493;-75
2023/10/25 02:21:50;;;;;;;1.60;0.70;;;;;;;4.81;68.84;101613.16;6144145;23;20495;-74
2023/10/25 02:24:17;;;;;;;3.17;0.98;;;;;;;4.82;68.64;101616.63;6143677;23;20025;-74
2023/10/25 02:26:44;;;;;;;1.77;0.73;;;;;;;4.83;68.74;101613.19;6147638;23;20025;-74
2023/10/25 02:29:11;;;;;;;3.38;1.00;;;;;;;4.83;68.78;101619.22;6147863;23;20018;-75
2023/10/25 02:31:39;;;;;;;4.82;1.10;;;;;;;4.84;68.80;101617.50;6146269;23;20031;-74
2023/10/25 02:34:06;;;;;;;1.58;0.80;;;;;;;4.84;68.79;101614.91;6145240;23;20022;-73
2023/10/25 02:36:33;;;;;;;2.40;1.20;;;;;;;4.83;68.98;101608.00;6145293;23;20030;-74
2023/10/25 02:39:00;;;;;;;1.83;0.95;;;;;;;4.82;68.89;101616.63;6147784;23;20021;-75
2023/10/25 02:41:27;;;;;;;2.45;1.10;;;;;;;4.82;68.87;101616.63;6144459;23;20770;-75
2023/10/25 02:43:56;;;;;;;1.38;0.70;;;;;;;4.81;69.04;101617.44;6147023;23;20032;-74
2023/10/25 02:46:23;;;;;;;4.07;0.82;;;;;;;4.81;69.00;101609.69;6146655;23;20025;-74
2023/10/25 02:48:52;;;;;;;3.13;1.10;;;;;;;4.79;69.11;101612.25;6146621;23;20018;-74
2023/10/25 02:51:19;;;;;;;2.47;2.05;;;;;;;4.77;68.95;101616.53;6150961;23;20025;-71
2023/10/25 02:53:46;;;;;;;1.85;0.80;;;;;;;4.73;68.91;101613.00;6148119;23;20461;-71
2023/10/25 02:56:13;;;;;;;2.03;1.27;;;;;;;4.73;69.00;101618.19;6148530;23;20032;-71
2023/10/25 02:58:40;;;;;;;5.72;1.10;;;;;;;4.76;69.32;101613.94;6148652;23;20021;-71
2023/10/25 03:01:06;;;;;;;2.65;1.38;;;;;;;4.78;69.23;101614.81;6151478;23;20619;-74
2023/10/25 03:03:35;;;;;;;6.47;1.92;;;;;;;4.77;69.62;101613.94;6151151;23;20036;-74
2023/10/25 03:06:03;;;;;;;5.07;1.70;;;;;;;4.78;69.58;101614.81;6149137;23;20060;-74
2023/10/25 03:08:31;;;;;;;2.45;1.40;;;;;;;4.78;69.56;101613.13;6149782;23;20021;-74
2023/10/25 03:10:58;;;;;;;2.33;1.20;;;;;;;4.79;69.92;101611.38;6150119;23;20021;-74
2023/10/25 03:13:24;;;;;;;3.88;1.98;;;;;;;4.80;69.64;101600.19;6151260;23;20018;-74
2023/10/25 03:15:51;;;;;;;2.58;1.52;;;;;;;4.80;69.75;101606.22;6148575;23;20048;-74
2023/10/25 03:18:18;;;;;;;4.10;1.17;;;;;;;4.81;69.83;101609.69;6148558;23;20457;-75
2023/10/25 03:20:45;;;;;;;4.35;1.77;;;;;;;4.82;70.00;101611.44;6150386;23;20029;-79
2023/10/25 03:23:13;;;;;;;3.92;1.55;;;;;;;4.82;69.70;101606.28;6150050;23;20032;-73
2023/10/25 03:25:40;;;;;;;4.35;1.80;;;;;;;4.84;69.90;101605.44;6147231;23;20025;-74
2023/10/25 03:28:07;;;;;;;3.60;1.77;;;;;;;4.83;70.04;101608.00;6150339;23;20022;-74
2023/10/25 03:30:36;;;;;;;4.38;2.25;;;;;;;4.84;69.94;101608.03;6149967;23;20026;-74
2023/10/25 03:33:04;;;;;;;3.88;2.05;;;;;;;4.86;70.06;101597.69;6149446;23;20583;-74
2023/10/25 03:35:31;;;;;;;5.93;2.72;;;;;;;4.87;70.05;101602.91;6148235;23;20039;-73
2023/10/25 03:37:57;;;;;;;4.68;2.15;;;;;;;4.87;69.92;101602.91;6148166;23;20056;-74
2023/10/25 03:40:26;;;;;;;5.47;2.75;;;;;;;4.88;70.18;101603.78;6150003;23;20032;-74
2023/10/25 03:42:52;;;;;;;5.00;2.45;;;;;;;4.87;70.22;101595.16;6151023;23;20598;-74
2023/10/25 03:45:19;;;;;;;5.95;2.70;;;;;;;4.88;70.18;101596.88;6149312;23;20441;-74
2023/10/25 03:47:46;;;;;;;6.45;3.10;;;;;;;4.90;70.35;101596.94;6149369;23;20461;-74
2023/10/25 03:50:13;;;;;;;5.10;2.72;;;;;;;4.92;70.33;101597.81;6148699;23;20022;-74
2023/10/25 03:52:40;;;;;;;6.78;2.70;;;;;;;4.90;70.32;101586.56;6151333;23;20018;-74
2023/10/25 03:55:08;;;;;;;3.22;1.77;;;;;;;4.92;70.14;101590.03;6148874;23;20022;-74
2023/10/25 03:57:36;;;;;;;4.88;1.63;;;;;;;4.93;70.02;101586.63;6150743;23;20033;-74
2023/10/25 04:00:03;;;;;;;4.60;2.45;;;;;;;4.93;70.27;101578.84;6147727;23;20453;-74
2023/10/25 04:02:30;;;;;;;4.57;1.88;;;;;;;4.93;70.37;101584.03;6148651;23;20032;-73
2023/10/25 04:04:57;;;;;;;8.55;2.40;;;;;;;4.92;70.35;101583.16;6147654;23;20017;-73
2023/10/25 04:07:24;;;;;;;3.85;2.05;;;;;;;4.92;70.19;101578.00;6150543;23;20345;-73
2023/10/25 04:09:51;;;;;;;3.42;2.03;;;;;;;4.90;70.36;101573.63;6149374;23;20092;-74
2023/10/25 04:12:18;;;;;;;5.85;2.95;;;;;;;4.93;70.17;101578.84;6151889;23;20080;-76
2023/10/25 04:14:46;;;;;;;6.22;2.92;;;;;;;4.93;70.46;101565.91;6149864;23;20018;-77
2023/10/25 04:17:13;;;;;;;4.63;2.35;;;;;;;4.93;70.36;101569.38;6150185;23;20032;-76
2023/10/25 04:19:41;;;;;;;7.60;2.78;;;;;;;4.95;70.35;101559.91;6150471;23;20694;-77
2023/10/25 04:22:08;;;;;;;6.85;2.20;;;;;;;4.96;70.47;101555.59;6149947;23;20432;-76
2023/10/25 04:24:34;;;;;;;4.95;2.85;;;;;;;4.92;70.40;101535.66;6150145;23;20026;-76
2023/10/25 04:27:01;;;;;;;4.80;2.92;;;;;;;4.94;70.23;101531.41;6150426;23;20025;-76
2023/10/25 04:29:29;;;;;;;6.00;2.90;;;;;;;4.97;70.32;101544.41;6149892;23;20022;-76
2023/10/25 04:31:57;;;;;;;5.85;3.03;;;;;;;4.98;70.41;101543.56;6148798;23;20022;-76
2023/10/25 04:34:24;;;;;;;4.10;1.98;;;;;;;5.00;70.39;101544.44;6145488;23;20027;-76
2023/10/25 04:36:51;;;;;;;4.68;2.53;;;;;;;5.01;70.29;101538.44;6151775;23;20608;-76
2023/10/25 04:39:18;;;;;;;5.30;2.22;;;;;;;5.02;70.03;101535.00;6149822;23;20036;-76
2023/10/25 04:41:45;;;;;;;4.68;2.45;;;;;;;5.00;70.19;101539.25;6149897;23;20021;-76
2023/10/25 04:44:13;;;;;;;6.10;2.47;;;;;;;5.00;70.17;101541.84;6149753;23;20021;-76
2023/10/25 04:46:40;;;;;;;5.38;2.17;;;;;;;4.97;70.32;101541.81;6149740;23;20017;-76
2023/10/25 04:49:08;;;;;;;4.65;2.25;;;;;;;4.95;70.24;101530.53;6150224;23;20390;-76
2023/10/25 04:51:35;;;;;;;5.47;2.72;;;;;;;4.93;70.09;101537.44;6149629;23;20024;-76
2023/10/25 04:54:02;;;;;;;9.05;2.47;;;;;;;4.92;70.31;101535.66;6150087;23;20018;-76
2023/10/25 04:56:28;;;;;;;6.85;2.58;;;;;;;4.91;70.28;101545.16;6150408;23;20352;-75
2023/10/25 04:58:55;;;;;;;5.05;1.05;;;;;;;4.89;70.02;101539.06;6150269;23;20345;-76
2023/10/25 05:01:22;;;;;;;4.43;2.20;;;;;;;4.87;70.25;101538.19;6152186;23;20814;-76
2023/10/25 05:03:49;;;;;;;5.30;2.15;;;;;;;4.87;70.30;101555.47;6151200;23;20096;-76
2023/10/25 05:06:18;;;;;;;4.90;1.92;;;;;;;4.84;70.34;101543.31;6150859;23;20105;-76
2023/10/25 05:08:45;;;;;;;5.25;2.42;;;;;;;4.86;70.36;101545.94;6149589;23;20683;-76
2023/10/25 05:11:16;;;;;;;4.57;2.80;;;;;;;4.87;70.48;101545.97;6149303;23;20453;-77
2023/10/25 05:13:43;;;;;;;7.82;2.60;;;;;;;4.86;70.40;101545.94;6149551;23;20397;-76
2023/10/25 05:16:12;;;;;;;3.50;1.85;;;;;;;4.88;70.30;101549.41;6150246;23;20453;-76
2023/10/25 05:18:39;;;;;;;3.65;1.73;;;;;;;4.88;70.37;101544.25;6147445;23;20017;-76
2023/10/25 05:21:07;;;;;;;4.72;2.53;;;;;;;4.89;70.57;101548.56;6150603;23;20036;-70
2023/10/25 05:23:35;;;;;;;5.00;2.03;;;;;;;4.89;70.59;101545.97;6148285;23;20025;-71
2023/10/25 05:26:03;;;;;;;5.32;2.55;;;;;;;4.87;70.50;101533.03;6147623;23;20457;-71
2023/10/25 05:28:31;;;;;;;5.10;2.55;;;;;;;4.81;70.34;101529.44;6147994;23;20021;-71
2023/10/25 05:31:02;;;;;;;4.35;2.22;;;;;;;4.88;70.64;101539.06;6147679;23;20087;-71
2023/10/25 05:33:32;;;;;;;7.30;2.22;;;;;;;4.86;70.54;101538.16;6146694;23;20029;-71
2023/10/25 05:35:59;;;;;;;5.90;2.22;;;;;;;4.85;70.41;101541.59;6145230;23;20029;-71
2023/10/25 05:38:27;;;;;;;2.83;1.90;;;;;;;4.85;70.61;101546.78;6148933;23;20032;-71
2023/10/25 05:40:56;;;;;;;4.75;2.55;;;;;;;4.84;70.62;101539.84;6147292;23;20021;-71
2023/10/25 05:43:27;;;;;;;4.72;2.90;;;;;;;4.84;70.59;101540.75;6147759;23;20021;-71
2023/10/25 05:45:54;;;;;;;4.63;2.13;;;;;;;4.85;70.67;101539.00;6148805;23;20021;-71
2023/10/25 05:48:21;;;;;;;6.35;2.55;;;;;;;4.84;70.86;101537.25;6148684;23;20027;-72
2023/10/25 05:50:50;;;;;;;9.85;2.60;;;;;;;4.84;70.86;101537.25;6149470;23;20029;-71
2023/10/25 05:53:18;;;;;;;4.63;2.15;;;;;;;4.85;70.95;101551.97;6148487;23;20021;-70
2023/10/25 05:55:46;;;;;;;5.78;2.33;;;;;;;4.84;71.08;101547.59;6148306;23;20025;-71
2023/10/25 05:58:15;;;;;;;6.20;2.70;;;;;;;4.85;71.20;101547.66;6145970;23;20024;-70
2023/10/25 06:00:48;;;;;;;5.00;2.67;;;;;;;4.84;71.04;101542.44;6147932;23;20017;-71
2023/10/25 06:03:19;;;;;;;9.55;2.85;;;;;;;4.84;71.21;101547.59;6147623;23;20021;-71
2023/10/25 06:05:50;;;;;;;4.50;2.20;;;;;;;4.84;71.06;101551.09;6148384;23;20033;-71
2023/10/25 06:08:18;;;;;;;5.38;2.58;;;;;;;4.83;71.31;101551.91;6144460;23;20024;-71
2023/10/25 06:10:45;;;;;;;7.25;2.72;;;;;;;4.83;71.29;101551.06;6148184;23;20017;-70
2023/10/25 06:13:14;;;;;;;7.03;2.55;;;;;;;4.83;71.51;101553.63;6145405;23;20027;-70
2023/10/25 06:15:41;;;;;;;5.10;2.40;;;;;;;4.83;71.47;101551.91;6147458;23;20352;-70
2023/10/25 06:18:10;;;;;;;8.95;3.10;;;;;;;4.83;71.67;101545.88;6147046;23;20021;-71
2023/10/25 06:20:37;;;;;;;5.55;2.65;;;;;;;4.83;71.71;101551.06;6148428;23;20029;-76
2023/10/25 06:23:03;;;;;;;7.43;2.53;;;;;;;4.83;71.74;101544.16;6149986;23;20018;-76
2023/10/25 06:25:31;;;;;;;5.75;2.53;;;;;;;4.85;71.96;101541.59;6151702;23;20026;-77
2023/10/25 06:27:59;;;;;;;6.05;3.42;;;;;;;4.85;71.95;101541.59;6151053;23;20036;-77
2023/10/25 06:30:27;;;;;;;5.30;2.83;;;;;;;4.85;71.92;101539.00;6151559;23;20496;-77
2023/10/25 06:32:54;;;;;;;5.00;2.13;;;;;;;4.85;72.09;101545.06;6150883;23;20026;-77
2023/10/25 06:35:21;;;;;;;5.10;2.50;;;;;;;4.86;71.98;101551.09;6151776;23;20056;-77
2023/10/25 06:37:49;;;;;;;4.85;2.55;;;;;;;4.85;71.99;101549.38;6151104;23;20024;-77
2023/10/25 06:40:16;;;;;;;3.90;2.13;;;;;;;4.84;72.13;101548.50;6152661;23;20024;-78
2023/10/25 06:42:44;;;;;;;6.18;3.17;;;;;;;4.83;72.38;101545.88;6151545;23;20022;-78
2023/10/25 06:45:14;;;;;;;6.45;2.63;;;;;;;4.83;72.42;101549.31;6151679;23;20342;-77
2023/10/25 06:47:44;;;;;;;5.38;2.83;;;;;;;4.82;72.21;101549.31;6152581;23;20029;-77
2023/10/25 06:50:12;;;;;;;3.78;1.83;;;;;;;4.83;72.36;101551.06;6149953;23;20018;-77
2023/10/25 06:52:40;;;;;;;4.60;2.20;;;;;;;4.82;72.53;101549.31;6152795;23;20018;-77
2023/10/25 06:55:08;;;;;;;6.15;1.77;;;;;;;4.82;72.45;101555.38;6150869;23;20022;-78
2023/10/25 06:57:36;;;;;;;3.17;2.13;;;;;;;4.83;72.48;101544.16;6151889;23;20031;-77
2023/10/25 07:00:08;;;;;;;9.90;4.75;;;;;;;4.82;72.52;101539.84;6151577;23;20076;-78
2023/10/25 07:02:40;;;;;;;7.10;2.17;;;;;;;4.84;72.49;101540.75;6152702;23;20021;-82
2023/10/25 07:05:15;;;;;;;4.70;2.55;;;;;;;4.83;72.67;101541.56;6154202;23;20080;-81
2023/10/25 07:07:43;;;;;;;;;;;;;;;4.82;72.27;101547.59;6153908;23;20057;-81
2023/10/25 07:10:12;;;;;;;9.05;3.47;;;;;;;4.81;72.34;101553.63;6152963;23;19917;-81
2023/10/25 07:12:40;;;;;;;4.32;2.08;;;;;;;4.81;72.57;101547.56;6154053;23;20610;-81
2023/10/25 07:15:08;;;;;;;4.45;2.45;;;;;;;4.81;72.65;101538.09;6153090;23;20028;-82
2023/10/25 07:17:35;;;;;;;7.28;2.38;;;;;;;4.82;72.80;101546.72;6153248;23;20060;-81
2023/10/25 07:20:02;;;;;;;3.45;1.73;;;;;;;4.82;72.84;101550.19;6153548;23;20018;-81
2023/10/25 07:22:31;;;;;;;6.82;2.58;;;;;;;4.79;72.91;101549.25;6153923;23;20025;-82
2023/10/25 07:24:58;;;;;;;28.85;5.03;;;;;;;4.82;73.18;101546.72;6153042;23;20487;-81
2023/10/25 07:27:25;;;;;;;5.93;1.92;;;;;;;4.82;73.26;101544.16;6154028;23;20022;-81
2023/10/25 07:29:52;;;;;;;7.78;2.53;;;;;;;4.83;73.32;101545.88;6152050;23;20077;-81
2023/10/25 07:32:18;;;;;;;12.60;2.65;;;;;;;4.84;73.36;101542.44;6149425;23;20028;-74
2023/10/25 07:34:45;;;;;;;6.53;2.55;;;;;;;4.85;73.45;101550.22;6148515;23;20464;-74
2023/10/25 07:37:12;;;;;;;4.38;1.77;;;;;;;4.87;73.53;101550.28;6150714;23;20032;-74
2023/10/25 07:39:41;;;;;;;6.63;2.70;;;;;;;4.87;73.57;101542.50;6150026;23;20024;-74
2023/10/25 07:42:08;;;;;;;4.80;2.13;;;;;;;4.85;73.59;101547.66;6148826;23;20473;-73
2023/10/25 07:44:35;;;;;;;3.65;2.20;;;;;;;4.88;73.48;101547.69;6150643;23;20045;-74
2023/10/25 07:47:03;;;;;;;4.82;2.85;;;;;;;4.89;73.82;101549.44;6148680;23;20021;-73
2023/10/25 07:49:34;;;;;;;3.03;1.48;;;;;;;4.91;73.62;101562.41;6150702;23;20068;-74
2023/10/25 07:52:01;;;;;;;6.35;3.20;;;;;;;4.92;74.03;101556.38;6148843;23;20716;-73
2023/10/25 07:54:28;;;;;;;5.50;1.90;;;;;;;4.91;73.83;101560.69;6150078;23;20028;-73
2023/10/25 07:56:56;;;;;;;4.38;1.23;;;;;;;4.95;73.91;101556.44;6148744;23;20028;-73
2023/10/25 07:59:23;;;;;;;2.22;0.35;;;;;;;4.96;73.22;101553.00;6149428;23;20021;-74
2023/10/25 08:01:51;;;;;;;2.65;0.43;;;;;;;4.97;73.25;101546.97;6146303;23;20021;-73
2023/10/25 08:04:18;;;;;;;1.73;0.45;;;;;;;5.01;73.19;101546.22;6148507;23;20393;-73
2023/10/25 08:06:45;;;;;;;2.78;0.50;;;;;;;5.03;73.02;101551.38;6147478;23;20018;-73
2023/10/25 08:09:12;;;;;;;0.55;0.30;;;;;;;5.05;72.27;101547.97;6148761;23;20036;-74
2023/10/25 08:11:39;;;;;;;4.63;0.40;;;;;;;5.07;72.31;101546.31;6148992;23;20029;-74
2023/10/25 08:14:07;;;;;;;0.75;0.30;;;;;;;5.09;72.05;101546.31;6149813;23;20024;-74
2023/10/25 08:16:39;;;;;;;0.63;0.28;;;;;;;5.08;71.89;101535.09;6146666;23;20021;-73
2023/10/25 08:19:06;;;;;;;3.95;0.60;;;;;;;5.06;71.92;101528.13;6149438;23;20021;-74
2023/10/25 08:21:33;;;;;;;3.10;0.40;;;;;;;5.16;71.68;101543.84;6147063;23;20028;-75
2023/10/25 08:24:01;;;;;;;2.47;0.50;;;;;;;5.18;71.60;101544.75;6148848;23;20453;-74
2023/10/25 08:26:28;;;;;;;1.55;0.40;;;;;;;5.21;71.73;101545.63;6148691;23;20029;-73
2023/10/25 08:28:55;;;;;;;1.17;0.40;;;;;;;5.21;71.69;101538.75;6147660;23;20024;-73
2023/10/25 08:31:23;;;;;;;1.08;0.40;;;;;;;5.26;71.51;101541.41;6149554;23;20021;-74
2023/10/25 08:33:50;;;;;;;2.60;0.40;;;;;;;5.27;71.18;101544.03;6149802;23;20029;-74
2023/10/25 08:36:17;;;;;;;2.42;0.30;;;;;;;5.31;70.96;101547.53;6148740;23;20028;-76
2023/10/25 08:38:44;;;;;;;4.28;0.60;;;;;;;5.33;71.08;101548.44;6150103;23;20017;-75
2023/10/25 08:41:11;;;;;;;2.10;0.43;;;;;;;5.34;70.83;101548.44;6149985;23;20022;-78
2023/10/25 08:43:39;;;;;;;2.25;0.30;;;;;;;5.36;71.00;101549.34;6153190;23;20032;-77
2023/10/25 08:46:07;;;;;;;1.13;0.30;;;;;;;5.37;70.50;101545.03;6151127;23;20507;-77
2023/10/25 08:48:35;;;;;;;5.95;0.40;;;;;;;5.40;70.32;101555.44;6152520;23;20033;-77
2023/10/25 08:51:04;;;;;;;1.08;0.55;;;;;;;5.42;70.41;101553.75;6150885;23;20682;-78
2023/10/25 08:53:31;;;;;;;1.02;0.30;;;;;;;5.42;69.94;101553.75;6154538;23;20127;-78
2023/10/25 08:55:59;;;;;;;3.58;0.85;;;;;;;5.41;69.45;101545.09;6150617;23;20028;-78
2023/10/25 08:58:26;;;;;;;1.15;0.52;;;;;;;5.46;69.45;101554.66;6153671;23;20075;-77
2023/10/25 09:00:54;;;;;;;3.05;0.40;;;;;;;5.47;69.12;101556.41;6152168;23;20027;-77
2023/10/25 09:03:42;;;;;;;4.82;1.70;;;;;;;5.48;68.32;101552.97;6153296;23;20096;-78
2023/10/25 09:06:10;;;;;;;0.50;0.30;;;;;;;5.49;68.01;101562.47;6152522;23;20017;-77
2023/10/25 09:08:37;;;;;;;1.17;0.40;;;;;;;5.47;67.61;101559.88;6151740;23;20449;-77
2023/10/25 09:11:07;;;;;;;0.88;0.52;;;;;;;5.49;67.90;101562.47;6153705;23;20025;-78
2023/10/25 09:13:35;;;;;;;2.63;1.63;;;;;;;5.51;68.28;101564.25;6152679;23;20056;-77
2023/10/25 09:16:06;;;;;;;2.10;0.30;;;;;;;5.52;68.43;101557.34;6153960;23;20021;-78
2023/10/25 09:18:34;;;;;;;0.38;0.20;;;;;;;5.47;67.89;101544.34;6152966;23;20040;-77
2023/10/25 09:21:04;;;;;;;5.30;0.40;;;;;;;5.57;68.01;101564.34;6153727;23;20028;-78
2023/10/25 09:23:33;;;;;;;1.27;0.50;;;;;;;5.58;67.79;101550.53;6151931;23;20017;-78
2023/10/25 09:26:01;;;;;;;1.60;0.68;;;;;;;5.60;67.72;101561.78;6153681;23;20675;-78
2023/10/25 09:28:29;;;;;;;0.82;0.30;;;;;;;5.61;67.19;101555.78;6150893;23;20096;-77
2023/10/25 09:30:57;;;;;;;2.35;0.30;;;;;;;5.62;67.28;101557.50;6152518;23;20021;-77
2023/10/25 09:33:24;;;;;;;0.63;0.40;;;;;;;5.64;67.48;101555.81;6150568;23;20025;-77
2023/10/25 09:35:52;;;;;;;14.80;0.73;;;;;;;5.63;67.34;101551.50;6152028;23;20024;-77
2023/10/25 09:38:21;;;;;;;0.60;0.30;;;;;;;5.67;67.18;101555.00;6152087;23;20515;-77
2023/10/25 09:40:48;;;;;;;3.05;0.40;;;;;;;5.68;66.63;101555.84;6151897;23;20018;-77
2023/10/25 09:43:19;;;;;;;0.82;0.40;;;;;;;5.69;66.66;101557.59;6152816;23;20021;-78
2023/10/25 09:45:52;;;;;;;1.80;0.88;;;;;;;5.71;66.96;101561.06;6153625;23;20457;-78
2023/10/25 09:48:20;;;;;;;2.28;0.50;;;;;;;5.69;66.49;101544.63;6152037;23;20404;-78
2023/10/25 09:51:04;;;;;;;5.97;0.32;;;;;;;5.74;66.66;101550.75;6152309;23;20017;-78
2023/10/25 09:53:38;;;;;;;4.25;0.40;;;;;;;5.73;66.28;101543.84;6151720;23;20021;-79
2023/10/25 09:56:09;;;;;;;4.85;0.52;;;;;;;5.75;65.91;101553.38;6135848;23;20072;-83
2023/10/25 09:58:37;;;;;;;1.92;0.30;;;;;;;5.75;65.97;101548.19;6152361;23;20022;-78
2023/10/25 10:01:05;;;;;;;1.80;0.43;;;;;;;5.78;65.92;101544.78;6152219;23;20025;-72
2023/10/25 10:03:44;;;;;;;1.33;0.40;;;;;;;5.79;65.96;101538.72;6145526;23;20022;-72
2023/10/25 10:06:27;;;;;;;3.75;0.40;;;;;;;5.84;66.02;101531.88;6148300;23;20027;-72
2023/10/25 10:09:05;;;;;;;4.75;0.55;;;;;;;5.86;66.46;101535.34;6145123;23;20025;-72
2023/10/25 10:11:39;;;;;;;1.55;0.35;;;;;;;5.88;66.37;101528.47;6144320;23;20022;-72
2023/10/25 10:14:28;;;;;;;3.05;0.70;;;;;;;5.90;66.25;101526.78;6130738;23;20021;-72
2023/10/25 10:16:59;;;;;;;0.95;0.30;;;;;;;5.94;65.78;101517.34;6147600;23;20072;-72
2023/10/25 10:19:26;;;;;;;1.00;0.45;;;;;;;5.95;65.73;101525.16;6147532;23;20029;-72
2023/10/25 10:22:14;;;;;;;2.88;0.40;;;;;;;5.97;65.77;101523.44;6086181;23;20525;-72
2023/10/25 10:24:47;;;;;;;2.22;0.50;;;;;;;5.98;65.34;101525.19;6081314;23;20026;-73
2023/10/25 10:27:16;;;;;;;1.02;0.47;;;;;;;5.98;65.40;101522.59;6088967;23;20068;-72
2023/10/25 10:29:47;;;;;;;1.00;0.60;;;;;;;5.97;65.23;101515.66;6087929;23;20028;-69
2023/10/25 10:32:14;;;;;;;1.95;0.88;;;;;;;5.98;65.44;101525.19;6089305;23;20047;-71
2023/10/25 10:34:46;;;;;;;1.10;0.40;;;;;;;5.96;65.11;101521.69;6087419;23;20022;-71
2023/10/25 10:37:15;;;;;;;1.27;0.52;;;;;;;5.96;65.38;101513.03;6088048;23;20331;-71
2023/10/25 10:40:21;;;;;;;3.75;0.50;;;;;;;5.99;65.42;101520.88;6087959;23;20022;-71
2023/10/25 10:42:49;;;;;;;3.28;0.73;;;;;;;5.99;65.46;101521.72;6081171;23;20033;-70
2023/10/25 10:45:18;;;;;;;5.43;0.70;;;;;;;6.00;65.33;101523.47;6088972;23;20018;-70
2023/10/25 10:47:51;;;;;;;4.40;0.60;;;;;;;6.02;65.41;101521.75;6088311;23;20341;-71
2023/10/25 10:50:19;;;;;;;3.35;1.30;;;;;;;6.02;64.73;101507.94;6089109;23;20032;-72
2023/10/25 10:52:48;;;;;;;4.68;1.13;;;;;;;6.02;65.08;101506.19;6089580;23;20022;-70
2023/10/25 10:55:18;;;;;;;3.60;2.00;;;;;;;6.02;64.58;101505.34;6086222;23;20018;-70
2023/10/25 10:57:45;;;;;;;3.00;1.52;;;;;;;5.99;64.55;101503.56;6090193;23;20032;-70
2023/10/25 11:00:18;;;;;;;29.88;16.40;;;;;;;5.98;64.65;101498.38;6088299;23;20454;-71
2023/10/25 11:02:46;;;;;;;7.15;2.20;;;;;;;5.95;64.58;101499.22;6089232;23;20073;-75
2023/10/25 11:05:15;;;;;;;4.25;1.67;;;;;;;5.93;64.46;101503.50;6088633;23;20050;-75
2023/10/25 11:07:42;;;;;;;6.20;1.65;;;;;;;5.93;64.63;101489.63;6088960;23;20054;-74
2023/10/25 11:10:10;;;;;;;2.05;1.35;;;;;;;5.94;64.68;101483.63;6089268;23;20101;-74
2023/10/25 11:12:38;;;;;;;3.88;1.35;;;;;;;5.94;64.47;101487.09;6096667;23;20018;-78
2023/10/25 11:15:06;;;;;;;3.20;1.15;;;;;;;5.94;64.67;101492.28;6095437;23;20022;-78
2023/10/25 11:17:35;;;;;;;7.10;1.80;;;;;;;5.95;64.23;101487.94;6095490;23;20023;-78
2023/10/25 11:20:02;;;;;;;4.38;1.88;;;;;;;5.94;64.40;101481.91;6109716;23;20021;-77
2023/10/25 11:22:30;;;;;;;5.07;1.27;;;;;;;5.95;64.25;101481.06;6154983;23;20030;-78
2023/10/25 11:24:58;;;;;;;1.95;0.93;;;;;;;5.96;64.35;101481.94;6154122;23;20025;-78
2023/10/25 11:27:30;;;;;;;4.43;1.33;;;;;;;5.91;64.08;101473.19;6154961;23;20631;-78
2023/10/25 11:29:58;;;;;;;2.65;1.30;;;;;;;5.93;64.03;101480.16;6153042;23;20069;-78
2023/10/25 11:32:24;;;;;;;2.72;1.17;;;;;;;5.92;64.66;101478.41;6154897;23;20018;-78
2023/10/25 11:34:56;;;;;;;1.80;1.10;;;;;;;5.90;64.41;101480.09;6152660;23;20677;-78
2023/10/25 11:37:25;;;;;;;2.78;0.90;;;;;;;5.90;64.30;101481.81;6151340;23;20025;-78
2023/10/25 11:39:56;;;;;;;2.03;0.82;;;;;;;5.86;64.03;101484.38;6154159;23;20032;-78